Time;durP1;ratioP1;P1;durP2;ratioP2;P2;SDS_P1;SDS_P2;PMS_P1;PMS_P2;Temp;Humidity;BMP_temperature;BMP_pressure;BME280_temperature;BME280_humidity;BME280_pressure;Samples;Min_cycle;Max_cycle;Signal;HPM_P1;HPM_P2
2021/04/02 00:06:19;;;;;;;33.3;14.5;;;;;;;10.58;78.78418;98226.48;;;;
2021/04/02 00:16:18;;;;;;;19.8;13.5;;;;;;;10.58;80.31738;98224.58;;;;
2021/04/02 00:26:16;;;;;;;18.1;14.4;;;;;;;10.53;81.18652;98215.84;;;;
2021/04/02 00:36:15;;;;;;;20.6;16.5;;;;;;;10.5;85.17871;98222.66;;;;
2021/04/02 00:46:14;;;;;;;18.4;15.4;;;;;;;10.29;91.27441;98207.41;;;;
2021/04/02 00:56:12;;;;;;;31.7;17.9;;;;;;;10.39;89.87988;98240.23;;;;
2021/04/02 01:06:10;;;;;;;24.2;16;;;;;;;10.31;91.71582;98232.92;;;;
2021/04/02 01:16:09;;;;;;;22.5;16.4;;;;;;;9.96;100;98242.77;;;;
2021/04/02 01:26:09;;;;;;;21.8;12.5;;;;;;;9.32;100;98243.41;;;;
2021/04/02 01:36:06;;;;;;;14.5;10.2;;;;;;;8.76;100;98223.26;;;;
2021/04/02 01:46:04;;;;;;;17.1;12;;;;;;;8.65;100;98239.91;;;;
2021/04/02 01:56:02;;;;;;;21.8;14.5;;;;;;;8.48;100;98241.34;;;;
2021/04/02 02:06:01;;;;;;;21.8;14.8;;;;;;;8.52;100;98253.08;;;;
2021/04/02 02:15:59;;;;;;;22.5;17.7;;;;;;;8.53;100;98251.19;;;;
2021/04/02 02:25:57;;;;;;;25.8;19.2;;;;;;;8.61;100;98250.45;;;;
2021/04/02 02:35:56;;;;;;;20.1;15.1;;;;;;;8.61;100;98255.06;;;;
2021/04/02 02:45:54;;;;;;;28;15.3;;;;;;;8.68;100;98266.19;;;;
2021/04/02 02:55:52;;;;;;;28.4;15.4;;;;;;;8.76;100;98260.88;;;;
2021/04/02 03:05:51;;;;;;;20.3;14.9;;;;;;;8.81;100;98270.72;;;;
2021/04/02 03:15:49;;;;;;;17.7;15;;;;;;;8.92;100;98264.79;;;;
2021/04/02 03:25:50;;;;;;;20.3;14;;;;;;;8.93;100;98271.77;;;;
2021/04/02 03:35:50;;;;;;;21;14.1;;;;;;;9.03;100;98263.46;;;;
2021/04/02 03:45:44;;;;;;;24.4;19.6;;;;;;;9;100;98277.52;;;;
2021/04/02 03:55:43;;;;;;;23.2;16.8;;;;;;;9.03;100;98284.17;;;;
2021/04/02 04:05:41;;;;;;;23.4;17.7;;;;;;;9.12;100;98292.31;;;;
2021/04/02 04:15:40;;;;;;;29.5;22.4;;;;;;;9.05;100;98298.91;;;;
2021/04/02 04:25:38;;;;;;;32.9;23.2;;;;;;;8.83;100;98325.74;;;;
2021/04/02 04:35:36;;;;;;;17.1;13.5;;;;;;;8.57;100;98327.39;;;;
2021/04/02 04:45:35;;;;;;;15;7.6;;;;;;;8.12;100;98349.73;;;;
2021/04/02 04:55:33;;;;;;;7.7;5;;;;;;;7.72;100;98378.86;;;;
2021/04/02 05:05:31;;;;;;;8.8;5.2;;;;;;;7.3;100;98395.88;;;;
2021/04/02 05:15:29;;;;;;;7.6;4.5;;;;;;;7;100;98425.78;;;;
2021/04/02 05:25:27;;;;;;;8;3.9;;;;;;;6.41;100;98426.22;;;;
2021/04/02 05:35:25;;;;;;;7.5;4.1;;;;;;;6.3;100;98471.02;;;;
2021/04/02 05:45:24;;;;;;;6.4;3.5;;;;;;;6.29;100;98468.61;;;;
2021/04/02 05:55:22;;;;;;;4.9;3.3;;;;;;;6.06;100;98500.4;;;;
2021/04/02 06:05:20;;;;;;;7.2;4.5;;;;;;;5.86;100;98500.56;;;;
2021/04/02 06:15:18;;;;;;;14.1;6.9;;;;;;;5.87;100;98501.33;;;;
2021/04/02 06:25:16;;;;;;;5.8;5.1;;;;;;;5.89;100;98501.88;;;;
2021/04/02 06:35:14;;;;;;;10.1;6;;;;;;;5.64;100;98500.14;;;;
2021/04/02 06:45:12;;;;;;;11.4;6.6;;;;;;;5.61;100;98503.36;;;;
2021/04/02 06:55:10;;;;;;;9.8;6.7;;;;;;;5.45;100;98521.35;;;;
2021/04/02 07:05:07;;;;;;;7.9;5.7;;;;;;;5.39;100;98518.98;;;;
2021/04/02 07:15:05;;;;;;;8.4;5.4;;;;;;;5.46;100;98541.66;;;;
2021/04/02 07:25:03;;;;;;;8.9;4.8;;;;;;;5.64;100;98558.95;;;;
2021/04/02 07:35:01;;;;;;;5.5;4;;;;;;;5.48;100;98581.5;;;;
2021/04/02 07:44:59;;;;;;;7.4;5.8;;;;;;;5.42;100;98594.06;;;;
2021/04/02 07:54:57;;;;;;;6.5;5.3;;;;;;;5.49;100;98610.61;;;;
2021/04/02 08:04:56;;;;;;;8.8;5;;;;;;;5.3;100;98614.16;;;;
2021/04/02 08:14:54;;;;;;;8.3;5.5;;;;;;;5.31;100;98637.15;;;;
2021/04/02 08:24:51;;;;;;;8.9;6.9;;;;;;;5.15;100;98639.05;;;;
2021/04/02 08:34:49;;;;;;;9.7;6.4;;;;;;;5.25;100;98651.57;;;;
2021/04/02 08:44:49;;;;;;;8.1;6.5;;;;;;;5.27;100;98650.25;;;;
2021/04/02 08:54:45;;;;;;;7.7;5.5;;;;;;;5.46;100;98656.59;;;;
2021/04/02 09:04:43;;;;;;;7.8;6.1;;;;;;;5.5;100;98660.33;;;;
2021/04/02 09:14:41;;;;;;;9.3;5.8;;;;;;;5.6;100;98664.83;;;;
2021/04/02 09:24:39;;;;;;;9.4;6.8;;;;;;;5.82;100;98667.16;;;;
2021/04/02 09:34:37;;;;;;;6.3;4;;;;;;;6.28;98.10645;98665.85;;;;
2021/04/02 09:44:37;;;;;;;8.2;5.3;;;;;;;6.84;94.56152;98657.41;;;;
2021/04/02 09:54:34;;;;;;;9.7;5.3;;;;;;;7.05;92.95117;98656.95;;;;
2021/04/02 10:04:32;;;;;;;7;5;;;;;;;7.35;89.61133;98658.55;;;;
2021/04/02 10:14:30;;;;;;;5.4;4.3;;;;;;;7.91;83.21973;98658.66;;;;
2021/04/02 10:24:29;;;;;;;7.9;3.5;;;;;;;7.73;82.69336;98667.5;;;;
2021/04/02 10:34:27;;;;;;;5.6;4;;;;;;;9.41;83.78809;98650.4;;;;
2021/04/02 10:44:25;;;;;;;7.1;4.3;;;;;;;9.35;78.38184;98644.33;;;;
2021/04/02 10:54:23;;;;;;;7.6;5.1;;;;;;;8.83;75.7832;98648.21;;;;
2021/04/02 11:04:22;;;;;;;6.3;4;;;;;;;9.4;79.0332;98641.56;;;;
2021/04/02 11:14:20;;;;;;;7.4;5.6;;;;;;;9.84;74.94629;98638.25;;;;
2021/04/02 11:24:19;;;;;;;8.6;6.3;;;;;;;9.42;73.34277;98631.28;;;;
2021/04/02 11:34:18;;;;;;;9.1;6.2;;;;;;;10.29;71.75;98606.05;;;;
2021/04/02 11:44:16;;;;;;;8.2;5.9;;;;;;;10.29;71.38867;98593.39;;;;
2021/04/02 11:54:15;;;;;;;7.3;5.4;;;;;;;9.24;71.39648;98572.2;;;;
2021/04/02 12:04:14;;;;;;;9.2;5.8;;;;;;;9.23;69.47949;98566.05;;;;
2021/04/02 12:14:12;;;;;;;11.3;6.1;;;;;;;9.39;68.7373;98548.5;;;;
2021/04/02 12:24:11;;;;;;;8.4;5.4;;;;;;;9.71;67.29785;98547.56;;;;
2021/04/02 12:34:09;;;;;;;9.7;5.9;;;;;;;9.56;67.82617;98534.42;;;;
2021/04/02 12:44:08;;;;;;;8.6;6.2;;;;;;;9.66;67.91113;98520.75;;;;
2021/04/02 12:54:06;;;;;;;9.1;6.2;;;;;;;9.89;64.60254;98516.98;;;;
2021/04/02 13:04:05;;;;;;;10.4;6.7;;;;;;;10.01;64.53027;98509.18;;;;
2021/04/02 13:14:06;;;;;;;9.5;6.3;;;;;;;10.11;62.31445;98478.52;;;;
2021/04/02 13:24:02;;;;;;;8.7;5.8;;;;;;;10.29;62.48828;98482.95;;;;
2021/04/02 13:34:01;;;;;;;11.4;5.7;;;;;;;10.25;62.37891;98470.39;;;;
2021/04/02 13:43:59;;;;;;;12.6;6.6;;;;;;;10.34;61.53223;98453.2;;;;
2021/04/02 13:53:58;;;;;;;8.2;6.2;;;;;;;10.5;61.79199;98453.58;;;;
2021/04/02 14:03:56;;;;;;;10.7;5.3;;;;;;;10.83;61.125;98445.97;;;;
2021/04/02 14:13:55;;;;;;;10.1;8.2;;;;;;;11;65.41211;98430.61;;;;
2021/04/02 14:23:54;;;;;;;10.1;5.9;;;;;;;11.36;64.08301;98406.08;;;;
2021/04/02 14:33:52;;;;;;;12.5;8;;;;;;;11.01;65.82324;98418.72;;;;
2021/04/02 14:43:51;;;;;;;9.4;7.8;;;;;;;11.35;63.86523;98407.18;;;;
2021/04/02 14:53:51;;;;;;;9.6;8.4;;;;;;;11.49;62.77344;98396.23;;;;
2021/04/02 15:03:50;;;;;;;9.6;8.6;;;;;;;11.43;62.16211;98387.51;;;;
2021/04/02 15:13:49;;;;;;;10.3;8.6;;;;;;;11.96;61.11328;98381.78;;;;
2021/04/02 15:23:46;;;;;;;12.6;8.8;;;;;;;13.58;59.8418;98378.55;;;;
2021/04/02 15:33:45;;;;;;;14.8;11.4;;;;;;;14.45;58.00391;98369.22;;;;
2021/04/02 15:43:44;;;;;;;12.6;9.9;;;;;;;14.73;53.99414;98366.63;;;;
2021/04/02 15:53:43;;;;;;;12.8;10.3;;;;;;;14.27;53.60547;98361.58;;;;
2021/04/02 16:03:43;;;;;;;12.1;10.2;;;;;;;14.22;54.47168;98354.48;;;;
2021/04/02 16:13:42;;;;;;;12.7;11.3;;;;;;;13.81;54.14453;98349.98;;;;
2021/04/02 16:23:41;;;;;;;22.7;11.4;;;;;;;14.1;54.53613;98341.69;;;;
2021/04/02 16:33:41;;;;;;;12.9;11.5;;;;;;;13.72;54.27148;98332.22;;;;
2021/04/02 16:43:39;;;;;;;16.1;14.4;;;;;;;12.37;57.20605;98337.94;;;;
2021/04/02 16:53:38;;;;;;;22.3;15.2;;;;;;;10.4;62.43457;98332.63;;;;
2021/04/02 17:03:37;;;;;;;19.1;15.4;;;;;;;9.06;67.31055;98327.36;;;;
2021/04/02 17:13:35;;;;;;;26.8;18.4;;;;;;;8.25;71.32324;98341.69;;;;
2021/04/02 17:23:34;;;;;;;25;19.4;;;;;;;7.49;73.54395;98342.25;;;;
2021/04/02 17:33:32;;;;;;;19.6;14.2;;;;;;;6.88;76.35059;98343.15;;;;
2021/04/02 17:43:30;;;;;;;23.5;18.7;;;;;;;6.47;77.73145;98358.15;;;;
2021/04/02 17:53:29;;;;;;;22.2;19.9;;;;;;;6.11;80.47754;98354.3;;;;
2021/04/02 18:03:27;;;;;;;24.4;21.9;;;;;;;5.93;81.31543;98369.98;;;;
2021/04/02 18:13:25;;;;;;;26;20.9;;;;;;;5.73;82.66992;98362.09;;;;
2021/04/02 18:23:23;;;;;;;23.9;21.2;;;;;;;5.44;83.18262;98367.44;;;;
2021/04/02 18:33:21;;;;;;;34.9;29.4;;;;;;;5.29;85.72168;98383.57;;;;
2021/04/02 18:43:19;;;;;;;37.6;25.9;;;;;;;5.07;86.17969;98378.63;;;;
2021/04/02 18:53:17;;;;;;;30;24;;;;;;;4.84;86.05371;98359.81;;;;
2021/04/02 19:03:15;;;;;;;34;26.3;;;;;;;4.58;86.52344;98358.36;;;;
2021/04/02 19:13:13;;;;;;;33.4;26.2;;;;;;;4.23;87.28516;98353.95;;;;
2021/04/02 19:23:11;;;;;;;38.4;29.4;;;;;;;3.88;92.5918;98360.17;;;;
2021/04/02 19:33:08;;;;;;;45.1;38.4;;;;;;;3.6;94.81641;98336.76;;;;
2021/04/02 19:43:06;;;;;;;43.7;35.2;;;;;;;3.6;97.74316;98332.23;;;;
2021/04/02 19:53:04;;;;;;;49.6;36.8;;;;;;;3.59;98.34766;98341.28;;;;
2021/04/02 20:03:02;;;;;;;46.1;37.3;;;;;;;3.42;99.4873;98348.75;;;;
2021/04/02 20:13:00;;;;;;;47.2;33.9;;;;;;;3.38;100;98342.36;;;;
2021/04/02 20:22:58;;;;;;;47.3;38.6;;;;;;;3.38;100;98324.52;;;;
2021/04/02 20:32:55;;;;;;;59.4;43.5;;;;;;;3.6;100;98313.58;;;;
2021/04/02 20:42:53;;;;;;;50.2;35.3;;;;;;;3.66;100;98311.7;;;;
2021/04/02 20:52:51;;;;;;;42.6;37;;;;;;;3.62;100;98283.98;;;;
2021/04/02 21:02:51;;;;;;;46.7;34.4;;;;;;;3.64;99.61719;98303.98;;;;
2021/04/02 21:12:47;;;;;;;57.1;41.5;;;;;;;3.53;100;98313.05;;;;
2021/04/02 21:22:44;;;;;;;47.3;38.9;;;;;;;3.54;100;98314.63;;;;
2021/04/02 21:32:42;;;;;;;49;37;;;;;;;3.51;100;98276.02;;;;
2021/04/02 21:42:40;;;;;;;50.2;38.5;;;;;;;3.54;100;98270.14;;;;
2021/04/02 21:52:38;;;;;;;59.9;37.3;;;;;;;3.58;100;98286.39;;;;
2021/04/02 22:02:36;;;;;;;70;44.1;;;;;;;3.38;100;98289.89;;;;
2021/04/02 22:12:33;;;;;;;52.3;39.5;;;;;;;3.26;100;98310.69;;;;
2021/04/02 22:22:31;;;;;;;44.1;37.6;;;;;;;3.02;100;98317.57;;;;
2021/04/02 22:32:29;;;;;;;50.4;37.1;;;;;;;2.91;100;98316.78;;;;
2021/04/02 22:42:27;;;;;;;60.6;40.6;;;;;;;2.77;100;98329;;;;
2021/04/02 22:52:24;;;;;;;52.5;40.9;;;;;;;2.88;100;98322.61;;;;
2021/04/02 23:02:22;;;;;;;53.4;45.2;;;;;;;3.16;100;98329.3;;;;
2021/04/02 23:12:20;;;;;;;62.7;45.8;;;;;;;3.41;100;98345.28;;;;
2021/04/02 23:22:17;;;;;;;62.7;48.7;;;;;;;3.61;100;98346.36;;;;
2021/04/02 23:32:15;;;;;;;75.1;52.4;;;;;;;3.66;100;98339.14;;;;
2021/04/02 23:42:13;;;;;;;44.4;38.9;;;;;;;3.78;100;98337.01;;;;
2021/04/02 23:52:11;;;;;;;54.5;35.5;;;;;;;3.85;100;98326.06;;;;
